Time;durP1;ratioP1;P1;durP2;ratioP2;P2;SDS_P1;SDS_P2;PMS_P1;PMS_P2;Temp;Humidity;BMP_temperature;BMP_pressure;BME280_temperature;BME280_humidity;BME280_pressure;Samples;Min_cycle;Max_cycle;Signal;HPM_P1;HPM_P2
2020/12/10 00:01:21;;;;;;;14.60;12.87;;;3.20;99.90;;;;;;4995443;28;20206;-45
2020/12/10 00:03:48;;;;;;;15.10;13.50;;;3.20;99.90;;;;;;4995296;28;20366;-44
2020/12/10 00:06:18;;;;;;;15.83;13.27;;;3.20;99.90;;;;;;4995270;28;20668;-46
2020/12/10 00:08:45;;;;;;;14.00;12.47;;;3.20;99.90;;;;;;4995181;28;20297;-45
2020/12/10 00:11:12;;;;;;;13.23;11.93;;;3.20;99.90;;;;;;4994982;28;20217;-44
2020/12/10 00:13:39;;;;;;;14.83;13.33;;;3.20;99.90;;;;;;4995019;28;20305;-43
2020/12/10 00:16:09;;;;;;;13.80;12.30;;;3.20;99.90;;;;;;4994866;28;20250;-44
2020/12/10 00:18:37;;;;;;;14.60;13.10;;;3.20;99.90;;;;;;4994919;28;20213;-49
2020/12/10 00:21:04;;;;;;;14.07;12.67;;;3.20;99.90;;;;;;4994910;28;20781;-47
2020/12/10 00:23:31;;;;;;;14.07;12.57;;;3.10;99.90;;;;;;4994792;28;20525;-45
2020/12/10 00:25:59;;;;;;;13.37;12.03;;;3.10;99.90;;;;;;4994834;28;20218;-46
2020/12/10 00:28:26;;;;;;;14.27;12.77;;;3.10;99.90;;;;;;4994912;28;20304;-48
2020/12/10 00:30:53;;;;;;;13.20;11.90;;;3.10;99.90;;;;;;4994913;28;20293;-43
2020/12/10 00:33:20;;;;;;;14.43;12.40;;;3.10;99.90;;;;;;4994182;28;20293;-44
2020/12/10 00:35:48;;;;;;;14.47;12.33;;;3.10;99.90;;;;;;4994621;28;20206;-48
2020/12/10 00:38:15;;;;;;;14.87;12.70;;;3.20;99.90;;;;;;4994401;28;20206;-46
2020/12/10 00:40:41;;;;;;;15.27;13.67;;;3.20;99.90;;;;;;4994591;28;20548;-46
2020/12/10 00:43:08;;;;;;;15.33;13.33;;;3.20;99.90;;;;;;4994690;28;20206;-44
2020/12/10 00:45:35;;;;;;;14.30;12.83;;;3.20;99.90;;;;;;4993615;28;20285;-43
2020/12/10 00:48:02;;;;;;;14.77;13.17;;;3.20;99.90;;;;;;4994401;28;20300;-44
2020/12/10 00:50:29;;;;;;;13.27;11.90;;;3.20;99.90;;;;;;4994263;28;20397;-47
2020/12/10 00:52:57;;;;;;;14.50;13.00;;;3.20;99.90;;;;;;4994552;28;20280;-43
2020/12/10 00:55:24;;;;;;;14.53;12.93;;;3.30;99.90;;;;;;4994421;28;20206;-47
2020/12/10 00:57:51;;;;;;;16.77;13.90;;;3.30;99.90;;;;;;4994375;28;20220;-46
2020/12/10 01:00:19;;;;;;;13.27;11.93;;;3.30;99.90;;;;;;4994154;28;20222;-46
2020/12/10 01:02:47;;;;;;;15.30;13.57;;;3.30;99.90;;;;;;4994072;28;20233;-47
2020/12/10 01:05:14;;;;;;;14.97;13.33;;;3.40;99.90;;;;;;4994014;28;20233;-50
2020/12/10 01:07:41;;;;;;;13.20;11.80;;;3.40;99.90;;;;;;4994257;28;20214;-46
2020/12/10 01:10:09;;;;;;;13.47;11.97;;;3.40;99.90;;;;;;4994102;28;20216;-46
2020/12/10 01:12:36;;;;;;;11.83;10.60;;;3.40;99.90;;;;;;4993876;28;20296;-46
2020/12/10 01:15:03;;;;;;;14.70;12.80;;;3.40;99.90;;;;;;4993939;28;20293;-44
2020/12/10 01:17:30;;;;;;;14.13;12.73;;;3.40;99.90;;;;;;4993822;28;20206;-43
2020/12/10 01:19:57;;;;;;;14.87;13.00;;;3.40;99.90;;;;;;4993761;28;20329;-47
2020/12/10 01:22:24;;;;;;;13.63;11.73;;;3.40;99.90;;;;;;4993438;28;20242;-45
2020/12/10 01:24:51;;;;;;;13.57;12.17;;;3.40;99.90;;;;;;4993935;28;20210;-46
2020/12/10 01:27:22;;;;;;;13.50;11.40;;;3.40;99.90;;;;;;4993637;28;20301;-44
2020/12/10 01:29:49;;;;;;;13.40;11.93;;;3.50;99.90;;;;;;4993808;28;20206;-42
2020/12/10 01:32:16;;;;;;;12.73;11.47;;;3.50;99.90;;;;;;4993588;28;20217;-46
2020/12/10 01:34:44;;;;;;;14.07;11.63;;;3.50;99.90;;;;;;4993895;28;20206;-47
2020/12/10 01:37:11;;;;;;;15.60;11.63;;;3.50;99.90;;;;;;4993706;28;20638;-46
2020/12/10 01:39:38;;;;;;;12.97;11.67;;;3.50;99.90;;;;;;4993565;28;20670;-44
2020/12/10 01:42:05;;;;;;;13.27;11.93;;;3.50;99.90;;;;;;4993536;28;20313;-47
2020/12/10 01:44:33;;;;;;;13.68;11.63;;;3.50;99.90;;;;;;4993298;28;20326;-44
2020/12/10 01:47:00;;;;;;;13.93;12.07;;;3.40;99.90;;;;;;4993360;28;20608;-48
2020/12/10 01:49:28;;;;;;;13.80;12.30;;;3.40;99.90;;;;;;4993716;28;20226;-44
2020/12/10 01:51:54;;;;;;;13.33;11.97;;;3.30;99.90;;;;;;4993269;28;20241;-46
2020/12/10 01:54:21;;;;;;;13.73;12.27;;;3.30;99.90;;;;;;4993227;28;20216;-44
2020/12/10 01:56:52;;;;;;;13.90;12.50;;;3.30;99.90;;;;;;4993247;28;20209;-48
2020/12/10 01:59:19;;;;;;;13.23;11.83;;;3.30;99.90;;;;;;4992923;28;20228;-43
2020/12/10 02:01:47;;;;;;;14.47;13.07;;;3.30;99.90;;;;;;4993728;28;20362;-46
2020/12/10 02:04:26;;;;;;;13.70;12.17;;;3.30;99.90;;;;;;4993261;28;20237;-44
2020/12/10 02:06:53;;;;;;;12.67;11.13;;;3.30;99.90;;;;;;4992898;28;20209;-44
2020/12/10 02:09:20;;;;;;;12.60;11.18;;;3.30;99.90;;;;;;4993058;28;20550;-44
2020/12/10 02:11:47;;;;;;;13.23;11.50;;;3.40;99.90;;;;;;4992871;28;20210;-46
2020/12/10 02:14:14;;;;;;;13.60;12.20;;;3.40;99.90;;;;;;4992818;28;20589;-45
2020/12/10 02:16:41;;;;;;;11.43;10.27;;;3.40;99.90;;;;;;4993041;28;20216;-45
2020/12/10 02:19:10;;;;;;;12.63;11.20;;;3.40;99.90;;;;;;4992864;28;20217;-47
2020/12/10 02:21:37;;;;;;;13.20;11.80;;;3.40;99.90;;;;;;4992781;28;20316;-45
2020/12/10 02:24:05;;;;;;;12.47;11.27;;;3.40;99.90;;;;;;4992634;28;20476;-48
2020/12/10 02:26:32;;;;;;;12.67;11.30;;;3.50;99.90;;;;;;4992607;28;20303;-45
2020/12/10 02:29:02;;;;;;;13.43;12.00;;;3.50;99.90;;;;;;4992984;28;20313;-48
2020/12/10 02:31:31;;;;;;;14.17;11.43;;;3.60;99.90;;;;;;4992610;28;20245;-45
2020/12/10 02:34:00;;;;;;;12.40;11.10;;;3.60;99.90;;;;;;4992604;28;20317;-46
2020/12/10 02:36:27;;;;;;;13.73;10.83;;;3.60;99.90;;;;;;4992521;28;20298;-44
2020/12/10 02:38:54;;;;;;;13.53;12.10;;;3.70;99.90;;;;;;4992431;28;20210;-44
2020/12/10 02:41:22;;;;;;;13.83;11.97;;;3.70;99.90;;;;;;4992226;28;20230;-44
2020/12/10 02:43:49;;;;;;;14.07;11.67;;;3.70;99.90;;;;;;4992616;28;20214;-46
2020/12/10 02:46:16;;;;;;;13.50;11.97;;;3.80;99.90;;;;;;4992646;28;20249;-47
2020/12/10 02:48:44;;;;;;;12.67;11.33;;;3.80;99.90;;;;;;4992410;28;20245;-48
2020/12/10 02:51:11;;;;;;;13.07;11.57;;;3.80;99.90;;;;;;4992496;28;20577;-45
2020/12/10 02:53:40;;;;;;;14.20;11.43;;;3.80;99.90;;;;;;4992417;28;20245;-47
2020/12/10 02:56:08;;;;;;;10.53;9.40;;;3.80;99.90;;;;;;4992525;28;20212;-50
2020/12/10 02:58:36;;;;;;;11.30;10.10;;;3.80;99.90;;;;;;4992309;28;20220;-46
2020/12/10 03:01:04;;;;;;;12.10;10.80;;;3.80;99.90;;;;;;4992305;28;20791;-48
2020/12/10 03:03:31;;;;;;;13.53;11.87;;;3.70;99.90;;;;;;4992365;28;20210;-48
2020/12/10 03:05:58;;;;;;;12.40;11.17;;;3.70;99.90;;;;;;4992368;28;20264;-46
2020/12/10 03:08:26;;;;;;;12.53;11.23;;;3.80;99.90;;;;;;4993685;28;20237;-47
2020/12/10 03:10:53;;;;;;;12.70;11.40;;;3.80;99.90;;;;;;4996332;28;20285;-45
2020/12/10 03:13:21;;;;;;;13.50;11.90;;;3.90;99.90;;;;;;4996205;28;20237;-45
2020/12/10 03:15:49;;;;;;;13.73;12.13;;;3.90;99.90;;;;;;4996154;28;20731;-45
2020/12/10 03:18:16;;;;;;;11.73;10.53;;;4.00;99.90;;;;;;4996347;28;20300;-45
2020/12/10 03:20:43;;;;;;;11.67;10.47;;;3.90;99.90;;;;;;4995890;28;20658;-47
2020/12/10 03:23:10;;;;;;;11.20;10.00;;;3.90;99.90;;;;;;4995735;28;20277;-48
2020/12/10 03:25:37;;;;;;;13.45;11.70;;;3.90;99.90;;;;;;4995782;28;20244;-47
2020/12/10 03:28:04;;;;;;;12.80;11.50;;;3.80;99.90;;;;;;4996020;28;20292;-50
2020/12/10 03:30:31;;;;;;;12.83;11.53;;;3.90;99.90;;;;;;4995816;28;20206;-46
2020/12/10 03:32:59;;;;;;;11.53;10.43;;;3.90;99.90;;;;;;4995656;28;20585;-47
2020/12/10 03:35:26;;;;;;;14.13;11.83;;;4.00;99.90;;;;;;4995831;28;20739;-49
2020/12/10 03:37:53;;;;;;;14.07;11.97;;;4.00;99.90;;;;;;4996009;28;20305;-46
2020/12/10 03:40:20;;;;;;;12.73;10.97;;;4.00;99.90;;;;;;4995546;28;20716;-44
2020/12/10 03:42:47;;;;;;;13.17;11.77;;;4.00;99.90;;;;;;4995738;28;20296;-47
2020/12/10 03:45:14;;;;;;;12.57;11.27;;;4.10;99.90;;;;;;4995656;28;20213;-50
2020/12/10 03:47:41;;;;;;;12.48;11.18;;;4.10;99.90;;;;;;4995617;28;20312;-48
2020/12/10 03:50:09;;;;;;;15.20;12.27;;;4.20;99.90;;;;;;4995842;28;20210;-50
2020/12/10 03:52:36;;;;;;;13.33;11.93;;;4.20;99.90;;;;;;4995696;28;20731;-48
2020/12/10 03:55:03;;;;;;;13.07;11.67;;;4.20;99.90;;;;;;4995627;28;20639;-48
2020/12/10 03:57:30;;;;;;;14.37;12.03;;;4.30;99.90;;;;;;4995561;28;20310;-51
2020/12/10 03:59:58;;;;;;;15.10;13.23;;;4.30;99.90;;;;;;4995281;28;20208;-49
2020/12/10 04:02:25;;;;;;;12.47;11.17;;;4.30;99.90;;;;;;4995225;28;20245;-45
2020/12/10 04:04:52;;;;;;;14.93;12.07;;;4.30;99.90;;;;;;4995430;28;20210;-49
2020/12/10 04:07:20;;;;;;;14.03;12.63;;;4.40;99.90;;;;;;4995234;28;20693;-47
2020/12/10 04:09:47;;;;;;;13.80;11.53;;;4.40;99.90;;;;;;4995277;28;20293;-48
2020/12/10 04:12:14;;;;;;;14.30;12.80;;;4.40;99.90;;;;;;4995306;28;20248;-47
2020/12/10 04:14:41;;;;;;;13.40;12.03;;;4.40;99.90;;;;;;4994993;28;20699;-50
2020/12/10 04:17:08;;;;;;;15.77;12.97;;;4.40;99.90;;;;;;4995133;28;20261;-47
2020/12/10 04:19:35;;;;;;;12.50;11.17;;;4.40;99.90;;;;;;4994202;28;20210;-46
2020/12/10 04:22:02;;;;;;;13.77;12.37;;;4.40;99.90;;;;;;4994679;28;20236;-50
2020/12/10 04:24:30;;;;;;;15.17;13.63;;;4.50;99.90;;;;;;4995191;28;20222;-45
2020/12/10 04:26:57;;;;;;;16.77;14.97;;;4.60;99.90;;;;;;4994867;28;20210;-49
2020/12/10 04:29:24;;;;;;;16.87;14.13;;;4.60;99.90;;;;;;4994693;28;20309;-50
2020/12/10 04:31:51;;;;;;;15.07;13.00;;;4.50;99.90;;;;;;4994996;28;20206;-49
2020/12/10 04:34:18;;;;;;;13.43;11.83;;;4.50;99.90;;;;;;4994784;28;20216;-47
2020/12/10 04:36:47;;;;;;;13.82;11.82;;;4.40;99.90;;;;;;4994795;28;20301;-48
2020/12/10 04:39:14;;;;;;;13.93;11.63;;;4.30;99.90;;;;;;4994530;28;20302;-47
2020/12/10 04:41:45;;;;;;;13.27;11.75;;;4.30;99.90;;;;;;4994508;28;20234;-51
2020/12/10 04:44:12;;;;;;;13.43;12.00;;;4.20;99.90;;;;;;4994542;28;20301;-48
2020/12/10 04:46:40;;;;;;;14.20;12.47;;;4.20;99.90;;;;;;4994547;28;20257;-51
2020/12/10 04:49:07;;;;;;;13.80;11.80;;;4.20;99.90;;;;;;4994406;28;20316;-51
2020/12/10 04:51:35;;;;;;;14.93;13.00;;;4.30;99.90;;;;;;4994467;28;20285;-51
2020/12/10 04:54:02;;;;;;;13.40;12.02;;;4.30;99.90;;;;;;4994173;28;20317;-52
2020/12/10 04:56:30;;;;;;;13.93;12.43;;;4.30;99.90;;;;;;4994137;28;20213;-55
2020/12/10 04:58:58;;;;;;;15.67;13.20;;;4.30;99.90;;;;;;4994089;28;20681;-54
2020/12/10 05:01:25;;;;;;;16.93;14.27;;;4.30;99.90;;;;;;4994076;28;20273;-54
2020/12/10 05:03:55;;;;;;;15.93;13.00;;;4.30;99.90;;;;;;4994133;28;20293;-53
2020/12/10 05:06:22;;;;;;;14.63;12.80;;;4.40;99.90;;;;;;4994209;28;20257;-52
2020/12/10 05:08:49;;;;;;;14.27;12.77;;;4.50;99.90;;;;;;4993918;28;20728;-52
2020/12/10 05:11:33;;;;;;;13.07;11.67;;;4.50;99.90;;;;;;4993751;28;20300;-51
2020/12/10 05:14:01;;;;;;;13.73;12.30;;;4.60;99.90;;;;;;4994029;28;20218;-49
2020/12/10 05:16:28;;;;;;;15.13;13.30;;;4.60;99.90;;;;;;4993721;28;20301;-47
2020/12/10 05:18:55;;;;;;;14.97;12.40;;;4.70;99.90;;;;;;4993949;28;20206;-49
2020/12/10 05:21:22;;;;;;;13.60;12.23;;;4.80;99.90;;;;;;4993729;28;20321;-48
2020/12/10 05:23:49;;;;;;;15.07;13.47;;;4.70;99.90;;;;;;4993616;28;20245;-49
2020/12/10 05:26:18;;;;;;;14.80;12.67;;;4.70;99.90;;;;;;4993529;28;20206;-52
2020/12/10 05:28:47;;;;;;;16.77;13.33;;;4.80;99.90;;;;;;4993255;28;20221;-44
2020/12/10 05:31:17;;;;;;;16.88;14.40;;;4.80;99.90;;;;;;4993425;28;20207;-43
2020/12/10 05:33:53;;;;;;;13.27;11.87;;;4.70;99.90;;;;;;4993717;28;20276;-49
2020/12/10 05:36:20;;;;;;;13.67;12.23;;;4.60;99.90;;;;;;4993774;28;20304;-50
2020/12/10 05:38:55;;;;;;;15.57;12.37;;;4.70;99.90;;;;;;4993533;28;20683;-50
2020/12/10 05:41:24;;;;;;;15.90;13.40;;;4.70;99.90;;;;;;4993570;28;20261;-46
2020/12/10 05:43:52;;;;;;;19.17;15.23;;;4.70;99.90;;;;;;4993451;28;20213;-49
2020/12/10 05:46:22;;;;;;;21.50;15.37;;;4.70;99.90;;;;;;4993296;28;20308;-48
2020/12/10 05:48:50;;;;;;;24.47;17.43;;;4.70;99.90;;;;;;4993655;28;20301;-50
2020/12/10 05:51:20;;;;;;;19.23;14.50;;;4.70;99.90;;;;;;4993524;28;20254;-53
2020/12/10 05:53:47;;;;;;;16.70;13.93;;;4.70;99.90;;;;;;4993227;28;20746;-48
2020/12/10 05:56:17;;;;;;;17.63;15.10;;;4.70;99.90;;;;;;4993316;28;20213;-47
2020/12/10 05:58:52;;;;;;;17.47;13.67;;;4.60;99.90;;;;;;4993200;28;20215;-46
2020/12/10 06:01:35;;;;;;;14.30;12.43;;;4.50;99.90;;;;;;4993495;28;20295;-46
2020/12/10 06:04:03;;;;;;;16.47;12.73;;;4.50;99.90;;;;;;4993716;28;20572;-49
2020/12/10 06:06:31;;;;;;;15.67;12.53;;;4.40;99.90;;;;;;4993209;28;20339;-46
2020/12/10 06:09:04;;;;;;;14.93;12.57;;;4.40;99.90;;;;;;4993080;28;20289;-48
2020/12/10 06:11:32;;;;;;;13.63;11.97;;;4.40;99.90;;;;;;4992840;28;20264;-49
2020/12/10 06:14:02;;;;;;;14.30;12.80;;;4.50;99.90;;;;;;4993198;28;20245;-48
2020/12/10 06:16:30;;;;;;;14.50;12.98;;;4.50;99.90;;;;;;4993063;28;20725;-51
2020/12/10 06:19:03;;;;;;;17.03;14.00;;;4.60;99.90;;;;;;4992874;28;20474;-50
2020/12/10 06:21:42;;;;;;;15.17;13.60;;;4.60;99.90;;;;;;4992837;28;20238;-47
2020/12/10 06:24:35;;;;;;;14.13;12.63;;;4.70;99.90;;;;;;4992755;28;20751;-47
2020/12/10 06:27:27;;;;;;;17.00;12.77;;;4.70;99.90;;;;;;4992719;28;20220;-46
2020/12/10 06:30:21;;;;;;;14.93;13.43;;;4.70;99.90;;;;;;4992797;28;20617;-48
2020/12/10 06:32:50;;;;;;;17.80;14.17;;;4.80;99.90;;;;;;4958169;28;20206;-48
2020/12/10 06:35:34;;;;;;;16.87;14.03;;;4.70;99.90;;;;;;4992548;28;20648;-47
2020/12/10 06:38:03;;;;;;;15.17;13.50;;;4.70;99.90;;;;;;4992609;28;20213;-49
2020/12/10 06:40:35;;;;;;;15.87;14.03;;;4.60;99.90;;;;;;4992412;28;20756;-48
2020/12/10 06:43:03;;;;;;;16.97;13.93;;;4.60;99.90;;;;;;4992061;28;20575;-46
2020/12/10 06:45:34;;;;;;;16.27;14.43;;;4.50;99.90;;;;;;4992398;28;20668;-45
2020/12/10 06:48:02;;;;;;;16.57;13.97;;;4.40;99.90;;;;;;4992470;28;20323;-50
2020/12/10 06:50:31;;;;;;;15.70;13.37;;;4.40;99.90;;;;;;4992340;28;20252;-46
2020/12/10 06:53:23;;;;;;;18.87;15.47;;;4.30;99.90;;;;;;4992244;28;20611;-48
2020/12/10 06:56:04;;;;;;;16.53;14.67;;;4.30;99.90;;;;;;4979909;28;20612;-45
2020/12/10 06:58:55;;;;;;;19.60;14.73;;;4.20;99.90;;;;;;4992093;28;20293;-48
2020/12/10 07:01:34;;;;;;;16.50;14.63;;;4.10;99.90;;;;;;4988723;28;20232;-49
2020/12/10 07:04:28;;;;;;;17.03;14.53;;;4.10;99.90;;;;;;4992368;28;20213;-50
2020/12/10 07:07:17;;;;;;;17.13;14.80;;;4.10;99.90;;;;;;4992239;28;20402;-49
2020/12/10 07:09:48;;;;;;;16.10;13.77;;;4.00;99.90;;;;;;4992100;28;20575;-54
2020/12/10 07:12:23;;;;;;;16.37;13.97;;;4.00;99.90;;;;;;4992404;28;20245;-44
2020/12/10 07:14:51;;;;;;;17.03;14.33;;;4.00;99.90;;;;;;4992210;28;20255;-47
2020/12/10 07:17:19;;;;;;;17.43;14.73;;;4.00;99.90;;;;;;4992175;28;20210;-46
2020/12/10 07:19:46;;;;;;;17.03;14.40;;;4.00;99.90;;;;;;4992132;28;20216;-46
2020/12/10 07:22:13;;;;;;;17.60;14.90;;;4.00;99.90;;;;;;4991827;28;20246;-50
2020/12/10 07:24:41;;;;;;;19.50;14.50;;;4.00;99.90;;;;;;4992242;28;20293;-47
2020/12/10 07:27:11;;;;;;;16.23;12.63;;;4.10;99.90;;;;;;4992326;28;20301;-51
2020/12/10 07:29:38;;;;;;;17.03;14.00;;;4.20;99.90;;;;;;4992220;28;20255;-52
2020/12/10 07:32:08;;;;;;;16.90;13.27;;;4.20;99.90;;;;;;4992200;28;20206;-48
2020/12/10 07:34:41;;;;;;;16.60;12.67;;;4.30;99.90;;;;;;4992041;28;20214;-51
2020/12/10 07:37:11;;;;;;;16.23;13.13;;;4.40;99.90;;;;;;4992350;28;20297;-47
2020/12/10 07:39:38;;;;;;;16.37;13.10;;;4.50;99.90;;;;;;4992035;28;20300;-51
2020/12/10 07:42:06;;;;;;;18.07;13.70;;;4.50;99.90;;;;;;4992044;28;20340;-48
2020/12/10 07:44:36;;;;;;;16.20;13.30;;;4.50;99.90;;;;;;4992156;28;20218;-49
2020/12/10 07:47:10;;;;;;;15.93;13.33;;;4.50;99.90;;;;;;4991952;28;20293;-45
2020/12/10 07:49:38;;;;;;;17.17;13.77;;;4.50;99.90;;;;;;4991979;28;20214;-46
2020/12/10 07:52:07;;;;;;;16.17;13.50;;;4.50;99.90;;;;;;4991799;28;20206;-45
2020/12/10 07:54:44;;;;;;;17.73;13.13;;;4.50;99.90;;;;;;4993283;28;20233;-46
2020/12/10 07:57:23;;;;;;;19.47;14.10;;;4.50;99.90;;;;;;4995290;28;20621;-42
2020/12/10 07:59:57;;;;;;;17.80;13.90;;;4.60;99.90;;;;;;4995338;28;20224;-41
2020/12/10 08:02:42;;;;;;;18.27;14.47;;;4.60;99.90;;;;;;4995370;28;20230;-42
2020/12/10 08:05:13;;;;;;;16.93;14.13;;;4.70;99.90;;;;;;4994852;28;20268;-47
2020/12/10 08:07:46;;;;;;;17.07;13.03;;;4.70;99.90;;;;;;4995178;28;20308;-45
2020/12/10 08:10:21;;;;;;;17.43;13.30;;;4.70;99.90;;;;;;4995050;28;20636;-44
2020/12/10 08:13:14;;;;;;;15.63;13.53;;;4.80;99.90;;;;;;4995142;28;20599;-47
2020/12/10 08:15:43;;;;;;;20.03;14.73;;;4.80;99.90;;;;;;4995185;28;20226;-47
2020/12/10 08:18:12;;;;;;;20.27;14.50;;;4.80;99.90;;;;;;4995102;28;20240;-45
2020/12/10 08:20:44;;;;;;;19.63;15.73;;;4.80;99.90;;;;;;4994604;28;20342;-46
2020/12/10 08:23:12;;;;;;;20.10;15.53;;;4.80;99.90;;;;;;4994790;28;20329;-47
2020/12/10 08:25:40;;;;;;;22.63;16.20;;;4.80;99.90;;;;;;4994848;28;20249;-48
2020/12/10 08:28:07;;;;;;;24.47;17.10;;;4.90;99.90;;;;;;4994784;28;20707;-46
2020/12/10 08:30:36;;;;;;;23.30;17.50;;;4.90;99.90;;;;;;4994615;28;20245;-46
2020/12/10 08:33:04;;;;;;;25.47;19.20;;;5.00;99.90;;;;;;4994602;28;20254;-48
2020/12/10 08:35:41;;;;;;;26.47;17.17;;;5.00;99.90;;;;;;4994927;28;20214;-48
2020/12/10 08:38:08;;;;;;;28.42;19.15;;;5.00;99.90;;;;;;4994905;28;20280;-48
2020/12/10 08:40:36;;;;;;;28.17;18.57;;;5.10;99.90;;;;;;4994657;28;20238;-45
2020/12/10 08:43:09;;;;;;;27.93;19.90;;;5.10;99.90;;;;;;4994528;28;20214;-46
2020/12/10 08:45:43;;;;;;;21.97;16.87;;;5.10;99.90;;;;;;4994271;28;20237;-47
2020/12/10 08:48:11;;;;;;;28.87;19.50;;;5.10;99.90;;;;;;4994552;28;20249;-50
2020/12/10 08:50:50;;;;;;;27.27;19.17;;;5.20;99.90;;;;;;4994554;28;20238;-51
2020/12/10 08:53:17;;;;;;;26.05;19.40;;;5.20;99.90;;;;;;4994585;28;20214;-49
2020/12/10 08:55:47;;;;;;;26.20;19.47;;;5.20;99.90;;;;;;4994252;28;20639;-45
2020/12/10 08:58:18;;;;;;;25.23;18.77;;;5.30;99.90;;;;;;4994253;28;20205;-48
2020/12/10 09:00:52;;;;;;;30.70;22.00;;;5.30;99.90;;;;;;4994162;28;20210;-47
2020/12/10 09:03:20;;;;;;;29.70;20.37;;;5.30;99.90;;;;;;4994350;28;20261;-52
2020/12/10 09:05:48;;;;;;;29.93;21.20;;;5.30;99.90;;;;;;4993573;28;20237;-46
2020/12/10 09:08:15;;;;;;;35.97;25.40;;;5.40;99.90;;;;;;4994031;28;20212;-44
2020/12/10 09:10:42;;;;;;;27.63;19.20;;;5.50;99.90;;;;;;4993827;28;20661;-47
2020/12/10 09:13:09;;;;;;;30.77;20.90;;;5.50;99.90;;;;;;4994031;28;20292;-45
2020/12/10 09:15:42;;;;;;;28.43;19.90;;;5.60;99.90;;;;;;4994027;28;20225;-46
2020/12/10 09:18:11;;;;;;;30.37;22.30;;;5.60;99.90;;;;;;4993958;28;20590;-45
2020/12/10 09:20:40;;;;;;;28.33;20.27;;;5.60;99.90;;;;;;4994015;28;20336;-44
2020/12/10 09:23:07;;;;;;;30.97;20.57;;;5.60;99.90;;;;;;4993371;28;20245;-45
2020/12/10 09:25:34;;;;;;;29.37;19.97;;;5.60;99.90;;;;;;5009713;28;20240;-48
2020/12/10 09:28:01;;;;;;;32.97;22.47;;;5.60;99.90;;;;;;4995209;28;20218;-47
2020/12/10 09:30:28;;;;;;;31.23;21.60;;;5.60;99.90;;;;;;4993806;28;20300;-47
2020/12/10 09:32:55;;;;;;;29.67;20.60;;;5.60;99.90;;;;;;4993545;28;20217;-45
2020/12/10 09:35:23;;;;;;;29.10;20.93;;;5.70;99.90;;;;;;4993530;28;20297;-45
2020/12/10 09:37:50;;;;;;;31.67;22.43;;;5.70;99.90;;;;;;4993621;28;20264;-45
2020/12/10 09:40:17;;;;;;;28.57;19.67;;;5.70;99.90;;;;;;4993542;28;20218;-45
2020/12/10 09:42:46;;;;;;;26.70;19.47;;;5.70;99.90;;;;;;4993493;28;20246;-45
2020/12/10 09:45:14;;;;;;;29.53;20.53;;;5.60;99.90;;;;;;4993424;28;20221;-44
2020/12/10 09:47:42;;;;;;;33.77;21.73;;;5.50;99.90;;;;;;4993381;28;20314;-44
2020/12/10 09:50:18;;;;;;;31.23;21.00;;;5.50;99.90;;;;;;4993210;28;20507;-44
2020/12/10 09:52:54;;;;;;;28.50;19.97;;;5.60;99.90;;;;;;4993284;28;20620;-46
2020/12/10 09:55:43;;;;;;;30.17;21.27;;;5.70;99.90;;;;;;4992833;28;20300;-48
2020/12/10 09:58:10;;;;;;;31.13;21.23;;;5.70;99.90;;;;;;4992750;28;20613;-47
2020/12/10 10:00:37;;;;;;;30.03;20.40;;;5.70;99.90;;;;;;4992929;28;20305;-47
2020/12/10 10:03:06;;;;;;;30.57;19.70;;;5.70;99.90;;;;;;4993227;28;20313;-48
2020/12/10 10:05:53;;;;;;;29.03;22.10;;;5.80;99.90;;;;;;4992921;28;20660;-48
2020/12/10 10:08:23;;;;;;;27.43;19.50;;;5.70;99.90;;;;;;4993011;28;20206;-48
2020/12/10 10:10:51;;;;;;;28.80;19.53;;;5.70;99.90;;;;;;4992944;28;20640;-46
2020/12/10 10:13:18;;;;;;;32.30;21.27;;;5.80;99.90;;;;;;4992814;28;20210;-47
2020/12/10 10:15:46;;;;;;;29.07;20.17;;;5.80;99.90;;;;;;4992731;28;20237;-48
2020/12/10 10:18:15;;;;;;;30.07;21.47;;;5.90;99.90;;;;;;4992024;28;20236;-48
2020/12/10 10:20:43;;;;;;;28.00;21.13;;;5.90;99.90;;;;;;4992805;28;20210;-49
2020/12/10 10:23:10;;;;;;;29.97;21.00;;;5.90;99.90;;;;;;4992524;28;20700;-47
2020/12/10 10:25:38;;;;;;;29.43;20.80;;;5.90;99.90;;;;;;4992609;28;20280;-45
2020/12/10 10:28:05;;;;;;;26.53;19.87;;;5.90;99.90;;;;;;4992362;28;20217;-46
2020/12/10 10:30:32;;;;;;;32.47;20.57;;;6.00;99.90;;;;;;4992359;28;20214;-48
2020/12/10 10:32:59;;;;;;;29.13;21.37;;;6.10;99.90;;;;;;4992787;28;20205;-49
2020/12/10 10:35:26;;;;;;;29.43;20.83;;;6.20;99.90;;;;;;4992500;28;20305;-45
2020/12/10 10:37:53;;;;;;;28.67;19.77;;;6.30;99.90;;;;;;4992608;28;20212;-49
2020/12/10 10:40:21;;;;;;;26.77;18.97;;;6.40;99.90;;;;;;4992377;28;20238;-45
2020/12/10 10:42:48;;;;;;;25.10;18.60;;;6.40;99.90;;;;;;4992516;28;20256;-50
2020/12/10 10:45:16;;;;;;;28.00;18.23;;;6.40;99.90;;;;;;4992589;28;20312;-47
2020/12/10 10:47:43;;;;;;;27.53;18.93;;;6.30;99.90;;;;;;4992159;28;20651;-48
2020/12/10 10:50:10;;;;;;;25.33;20.70;;;6.30;99.90;;;;;;4992215;28;20296;-47
2020/12/10 10:52:37;;;;;;;27.53;18.97;;;6.30;99.90;;;;;;4992216;28;20224;-48
2020/12/10 10:55:04;;;;;;;24.30;19.17;;;6.30;99.90;;;;;;4992320;28;20245;-49
2020/12/10 10:57:31;;;;;;;25.33;17.93;;;6.20;99.90;;;;;;4992198;28;20495;-50
2020/12/10 10:59:59;;;;;;;28.60;19.70;;;6.30;99.90;;;;;;4992373;28;20406;-45
2020/12/10 11:02:28;;;;;;;27.57;19.43;;;6.30;99.90;;;;;;4992207;28;20230;-48
2020/12/10 11:04:55;;;;;;;29.53;21.37;;;6.30;99.90;;;;;;4992162;28;20545;-48
2020/12/10 11:07:23;;;;;;;26.47;19.20;;;6.20;99.90;;;;;;4992310;28;20217;-48
2020/12/10 11:09:51;;;;;;;29.23;18.13;;;6.20;99.90;;;;;;4992485;28;20206;-48
2020/12/10 11:12:18;;;;;;;25.90;17.73;;;6.30;99.90;;;;;;4992542;28;20210;-50
2020/12/10 11:14:46;;;;;;;25.23;18.40;;;6.30;99.90;;;;;;4992484;28;20214;-48
2020/12/10 11:17:14;;;;;;;25.70;18.10;;;6.40;99.90;;;;;;4991964;28;20301;-47
2020/12/10 11:19:43;;;;;;;26.43;18.13;;;6.50;99.90;;;;;;4992119;28;20210;-45
2020/12/10 11:22:10;;;;;;;29.93;20.70;;;6.50;99.90;;;;;;4991922;28;20673;-46
2020/12/10 11:24:37;;;;;;;29.07;20.67;;;6.50;99.90;;;;;;4992117;28;20213;-45
2020/12/10 11:27:05;;;;;;;31.17;21.40;;;6.40;99.90;;;;;;4992206;28;20210;-48
2020/12/10 11:29:32;;;;;;;30.83;22.17;;;6.20;99.90;;;;;;4993406;28;20301;-46
2020/12/10 11:31:59;;;;;;;33.67;22.80;;;6.10;99.90;;;;;;4995852;28;20202;-47
2020/12/10 11:34:29;;;;;;;34.70;22.90;;;6.00;99.90;;;;;;4995776;28;20210;-49
2020/12/10 11:36:56;;;;;;;29.37;21.90;;;6.10;99.90;;;;;;4996029;28;20261;-46
2020/12/10 11:39:24;;;;;;;36.50;22.83;;;6.10;99.90;;;;;;4995620;28;20653;-45
2020/12/10 11:41:52;;;;;;;33.73;22.37;;;5.90;99.90;;;;;;4995604;28;20324;-45
2020/12/10 11:44:19;;;;;;;32.70;21.20;;;5.90;99.90;;;;;;4995550;28;20767;-46
2020/12/10 11:46:47;;;;;;;33.07;22.23;;;5.90;99.90;;;;;;4995621;28;20564;-48
2020/12/10 11:49:17;;;;;;;31.47;20.83;;;5.90;99.90;;;;;;4995841;28;20571;-47
2020/12/10 11:51:45;;;;;;;31.73;21.97;;;6.00;99.90;;;;;;4995209;28;20691;-46
2020/12/10 11:54:13;;;;;;;36.00;23.23;;;6.00;99.90;;;;;;4995207;28;20210;-49
2020/12/10 11:56:41;;;;;;;30.97;19.03;;;6.00;99.90;;;;;;4995407;28;20214;-46
2020/12/10 11:59:08;;;;;;;31.90;20.83;;;6.00;99.90;;;;;;4995287;28;20297;-44
2020/12/10 12:01:37;;;;;;;32.77;20.27;;;6.10;99.90;;;;;;4995416;28;20320;-50
2020/12/10 12:04:04;;;;;;;37.27;23.33;;;6.20;99.90;;;;;;4995412;28;20214;-49
2020/12/10 12:06:31;;;;;;;36.60;23.57;;;6.30;99.90;;;;;;4995103;28;20240;-44
2020/12/10 12:08:59;;;;;;;32.83;21.67;;;6.40;99.90;;;;;;4995122;28;20301;-46
2020/12/10 12:11:27;;;;;;;37.07;23.47;;;6.40;99.90;;;;;;4995080;28;20249;-45
2020/12/10 12:13:54;;;;;;;34.75;22.35;;;6.50;99.90;;;;;;4994940;28;20206;-45
2020/12/10 12:16:21;;;;;;;31.33;18.27;;;6.40;99.90;;;;;;4994868;28;20218;-44
2020/12/10 12:18:49;;;;;;;30.93;19.53;;;6.30;99.90;;;;;;4994912;28;20214;-44
2020/12/10 12:21:22;;;;;;;34.00;25.10;;;6.20;99.90;;;;;;4994871;28;20241;-44
2020/12/10 12:23:51;;;;;;;30.00;20.33;;;6.20;99.90;;;;;;4995221;28;20238;-44
2020/12/10 12:26:19;;;;;;;36.23;29.83;;;6.20;99.90;;;;;;4994795;28;20213;-44
2020/12/10 12:28:49;;;;;;;37.83;24.07;;;6.10;99.90;;;;;;4994830;28;20621;-47
2020/12/10 12:31:17;;;;;;;32.43;20.67;;;5.90;99.90;;;;;;4994834;28;20214;-46
2020/12/10 12:34:03;;;;;;;33.50;22.47;;;5.90;99.90;;;;;;4994670;28;20547;-44
2020/12/10 12:36:30;;;;;;;35.50;22.50;;;5.90;99.90;;;;;;4994620;28;20308;-44
2020/12/10 12:38:58;;;;;;;37.83;23.03;;;5.80;99.90;;;;;;4994576;28;20206;-47
2020/12/10 12:41:30;;;;;;;37.30;24.10;;;5.80;99.90;;;;;;4993669;28;20233;-46
2020/12/10 12:43:58;;;;;;;40.40;24.17;;;5.80;99.90;;;;;;4994615;28;20268;-50
2020/12/10 12:46:25;;;;;;;41.50;25.23;;;5.70;99.90;;;;;;4994562;28;20643;-46